Timeline UpdatesTrip UpdatesNews PostsPvt PostsTravel TipsAdmin PostsConv PostsFollowed PostsChat RequestsBlog PostsPNR Posts

Disclaimer
Search
 
 
Thu Jul 24, 2014 01:38:28 ISTHomeTrainsΣChainsAtlasPNRForumGalleryNewsFAQTripsMembersLoginFeedback
No Recent News for this Train
Other Trains in the News **new
Latest...
14673 Jaya Nagar-Amritsar Shaheed Express train will be regulated for 40 munites at Panipat on 18.04.2013
Fri Apr 12, 2013 (04:13PM)
⇐ Return Journey: Train# 14674

14673/Shaheed Express

Jul 01 2013 (7:57PM)
Change Departure Station:
Change Arrival Station:
Post a Train Travel TipPost a Train Travel Tip **new
Post a Comment/Question/Picture/VideoPost a Comment/Question/Picture/Video
Pantry/Catering
✕ NO Pantry Car
✓ Catering Avbl
Loco/Rake Reversals
SPJ/Samastipur Junction (9);
RSA - Rake Sharing
14649/50 Saryu Yamuna Express
Rake/Coach Composition
SLR-2;UR-8; SL-7; 3A-1; 2A/3A=1-Coach arrangement doesnt follow an order-UR coaches come between SL coaches.; 2A+3A Compositie information by Er Ankit Shotra Bhagat
Loco
JYG-DLI: TKD / LKO WDM-3A / TKD WDP-4 DLI-ASR: GZB WAP-4
News    PNR    Forum    Time-Table    Availability    Fare Chart    Map    Arr/Dep History    Trips    Gallery    ΣChains    X/O    Timeline    
Travel Time: 29h 25m    35 halts    Distance: 1207 km    Avg Speed: 41 km/hr
Type: Mail/Express
Zone: NR/Northern
Departs @ 06:30
Platform# 3
 M WT S
Jaynagar/JYG 
Arrives @ 11:55 +1 night
Platform# 11
S T TF 
Old Delhi Junction/DLI 

35 halts. 203 intermediate Stations between Jaynagar and Old Delhi Junction

Show ALL intermediate Stations  Show Old Time-Table

#CodeStation NameX/OArrivesAvgDepartsAvgHaltPFDay#KmSpeedElevZoneAddress
1JYG»Jaynagar (3)»  -06:30-310.05268mECRDistt: Madhubani, Bihar
2KJIKhajauli  06:44-06:45-1m--112.05170mECRMadhubani, Bihar
3RJARajanagar  06:56-06:57-1m--121.33565mECRRajnagar Distt: Madhubani, Bihar
4MBIMadhubani (3)  07:14-07:15-1m--131.26062mECRMadhubani, Bihar
5PDWPandaulX  07:24-07:25-1m--140.22159mECRMadhubani, Bihar
6SKISakri Junction (5)X  07:47-07:52-5m--148.15055mECRMadhubani, Bihar
7TRSTarsarai  08:00-08:01-1m--154.74454mECRDarbhanga, Bihar
8KKHTKakarghatti  08:10-08:11-1m--161.31154mECRDarbhanga, Bihar
9DBGDarbhanga Junction (5)X  08:45-09:13-28m2167.74354mECRDarbhanga, Bihar
10LSILaheria Sarai (1)X  09:20-09:25-5m1172.75752mECRDarbhanga, Bihar
11HYTHaiaghat  09:36-09:37-1m--183.11951mECRDarbhanga, Bihar
12SPJSamastipur Junction (9)10:45-11:05-20m--1105.16355mECRSamastipur, Bihar
13MFPMuzaffarpur Junction (6)  11:55-12:05-10m31157.26057mECRMuzaffarpur, Bihar
14HJPHajipur Junction (3)X  12:59-13:00-1m--1211.13355mECR06224-272230, Bihar
15SEESonpur Junction (4)X  13:10-13:20-10m--1216.65056mECRSaran, Bihar
16CPRChhapra Junction (6)X  14:25-14:40-15m--1270.67358mNERDistt: Saran, Bihar
17SVSiwan Junction (4)X  15:30-15:35-5m--1331.86770mNERSiwan, Bihar
18MWMairwa (2)  15:54-15:55-1m--1353.13673mNERMairwa, Bihar
19BHTRBhatpar Rani (2)  16:19-16:20-1m--1367.73973mNERDeoria, Uttar Pradesh
20BTTBhatni Junction (5)X  16:40-16:45-5m--1380.53673mNERDeoria, Uttar Pradesh
21DEOSDeoria Sadar (3)  17:20-17:21-1m--1401.33179mNERDeoria- 274001, Uttar Pradesh
22GKPGorakhpur Junction (10)  18:55-19:20-25m51450.54884mNERGorakhpur 273001, Uttar Pradesh
23KLDKhalilabad (3)X  20:02-20:03-1m11484.45586mNERKhalilabad- 272175, Uttar Pradesh
24BSTBasti (4)  20:35-20:40-5m11513.97790mNERBasti 272001, Uttar Pradesh
25BVBabhnan (2)  21:04-21:05-1m11544.754101mNERDistrict- Basti, Uttar Pradesh
26MURMankapur Junction (5)X  21:38-21:40-2m11574.448104mNERDistrict Gonda, Uttar Pradesh
27GDGonda Junction (3)  22:15-22:20-5m11602.348110mNERGonda 271001, Uttar Pradesh
28BBKBarabanki Junction (4)X  00:11-00:13-2m22691.633122mNRPin-225001, Uttar Pradesh
29LKOLucknow Charbagh (9)X  01:05-01:15-10m62720.267123mNR226004, Uttar Pradesh
30SPNShahjahanpur Junction (3)X  03:43-03:45-2m--2885.040156mNRShahjahanpur, Uttar Pradesh
31BEBareilly Junction (4)  05:30-05:35-5m22955.568174mNRBareilly, Uttar Pradesh
32RMURampur Junction (3)X  06:31-06:32-1m--21018.634190mNRRampur, Uttar Pradesh
33MBMoradabad Junction (7)X  07:20-07:30-10m--21045.861201mNRMoradabad, Uttar Pradesh
34AMROAmroha (3)X  08:00-08:01-1m221076.436217mNRAmroha, Uttar Pradesh
35HPUHapur Junction (4)X  10:05-10:10-5m321149.839214mNRHapur Jn., Uttar Pradesh
36GZBGhaziabad Junction (6)O  11:07-11:09-2m321186.626217mNRGhaziabad, Uttar Pradesh
37DLI•Old Delhi Junction (16)•11:55-12:45-50m1121206.613219mNRNear Chandni Chowk Metro Station, Delhi NCT
38SZMDelhi Sabzi Mandi (2)  12:59-13:00-1m--21209.669220mNRGulabi Bagh, Delhi NCT
39SNPSonipat (3)  13:35-13:36-1m221250.062225mNRSonipat, Haryana
40PNPPanipat Junction (5)X  14:20-14:25-5m321295.171235mNRPanipat, Haryana
41KUNKarnal (3)X  14:54-14:55-1m--21329.564253mNRKarnal, Haryana
42KKDEKurukshetra Junction (3)  15:26-15:28-2m121362.649260mNRKurukshetra, Haryana
43UMBAmbala Cantt. Junction (7)X  16:20-16:30-10m721404.735278mNRAmbala 133001, Haryana
44UBCAmbala City (3)  16:43-16:44-1m321412.377273mNRNH-1, Haryana
45RPJRajpura Junction (3)X  17:00-17:01-1m121432.834272mNRNH-1, Punjab
46SIRSirhind Junction (3)  17:45-17:47-2m121457.659271mNRSirhind, Punjab
47GVGMandi Gobindgarh (2)X  17:57-17:58-1m221467.454268mNRMandi Gobindgarh, Punjab
48KNNKhanna (3)  18:07-18:08-1m121475.544269mNRNH 1, Punjab
49DOADoraha (2)X  18:36-18:37-1m121495.925261mNRDoraha, Punjab
50LDHLudhiana Junction (7)XO  19:30-19:40-10m321518.333246mNRLudhiana 141001, Punjab
51PHRPhillaur Junction (3)X  20:04-20:05-1m221531.468246mNRPhillaur, Punjab
52PGWPhagwara Junction (3)X  20:25-20:26-1m221554.070245mNRPhagwara, Punjab
53JRCJalandhar Cantt. Junction (3)X  20:40-20:42-2m121570.397239mNRNear Rama Mandi, Punjab
54JUCJalandhar City Junction (5)X  20:45-20:55-10m121575.137239mNRJalandhar 144001, Punjab
55KREKartarpur (2)  21:19-21:20-1m221589.854236mNRKartarpur, Punjab
56BEASBeas Junction (2)X  21:44-21:45-1m121611.226238mNRBeas, Punjab
57ASRAmritsar Junction (5)  23:25--321654.3-233mNRAmritsar 143002, Punjab
Scroll to Top
Scroll to Bottom